°C

Conditions at local time : on    Forecast:

Nearby METAR Reports

EGKA - Shoreham-By-Sea, United Kingdom
Distance from station: ENE 4mi, 6km
Updated: Tue, 23-Jul-2019 4:20pm BST
Clear
Clear
 Wind from ESE
Wind: ESE 13 mph , 20 km/h
Temperature: 30°C
Heat Index: 29°C
Dew Point: 15°C
Humidity: 40%
Barometer: 1015 hPa
Summary: Clear
Visibility: greater than 7 miles , 10 km
2019/07/23 15:20 EGKA 231520Z 11011KT CAVOK 30/15 Q1015
EGKK - London/Gatwick A, United Kingdom
Distance from station: NNE 24mi, 39km
Updated: Tue, 23-Jul-2019 4:20pm BST
Clear
Clear
 Wind from ESE
Wind: ESE 9 mph , 15 km/h
Temperature: 31°C
Dew Point: 13°C
Humidity: 33%
Barometer: 1015 hPa
Summary: Clear
Visibility: greater than 7 miles , 10 km
2019/07/23 15:20 EGKK 231520Z 11008KT 090V150 CAVOK 31/13 Q1015
 
EGLF - Farnborough, United Kingdom
Distance from station: NNW 37mi, 59km
Updated: Tue, 23-Jul-2019 4:20pm BST
Clear
Clear
 Wind from SSE
Wind: SSE 12 mph , 19 km/h
Temperature: 32°C
Dew Point: 13°C
Humidity: 31%
Barometer: 1015 hPa
Clouds: Clear
Visibility: 6 miles , 10 km
2019/07/23 15:20 EGLF 231520Z AUTO 15010KT 110V190 9999 NCD 32/13 Q1015
EGVO - Odiham Raf, United Kingdom
Distance from station: NW 38mi, 61km
Updated: Tue, 23-Jul-2019 4:20pm BST
Clear
Clear
 Wind from SE
Wind: SE 14 mph , 22 km/h
Temperature: 31°C
Dew Point: 13°C
Humidity: 33%
Barometer: 1015 hPa
Summary: Clear
Visibility: greater than 7 miles , 10 km
2019/07/23 15:20 EGVO 231520Z 14012KT CAVOK 31/13 Q1015 NOSIG RMK BLU BLU